createdAt,value
2017-10-08T00:00:35.962Z,48.1
2017-10-08T00:01:39.503Z,48.0
2017-10-08T00:02:43.670Z,47.5
2017-10-08T00:03:47.868Z,47.6
2017-10-08T00:04:51.884Z,47.7
2017-10-08T00:05:55.127Z,47.4
2017-10-08T00:06:57.132Z,47.4
2017-10-08T00:08:00.379Z,47.6
2017-10-08T00:09:03.213Z,47.5
2017-10-08T00:10:05.938Z,47.7
2017-10-08T00:11:12.596Z,47.5
2017-10-08T00:12:14.166Z,47.4
2017-10-08T00:13:15.780Z,47.4
2017-10-08T00:14:19.775Z,47.6
2017-10-08T00:15:23.241Z,47.5
2017-10-08T00:16:26.694Z,47.8
2017-10-08T00:17:30.096Z,47.1
2017-10-08T00:18:32.896Z,47.2
2017-10-08T00:19:36.026Z,47.1
2017-10-08T00:20:39.555Z,46.9
2017-10-08T00:21:43.146Z,46.7
2017-10-08T00:22:46.053Z,47.0
2017-10-08T00:23:49.402Z,46.5
2017-10-08T00:24:52.511Z,46.4
2017-10-08T00:25:54.777Z,46.3
2017-10-08T00:26:57.187Z,46.0
2017-10-08T00:27:59.383Z,45.9
2017-10-08T00:29:03.227Z,45.8
2017-10-08T00:30:05.252Z,45.8
2017-10-08T00:31:06.859Z,45.8
2017-10-08T00:32:08.466Z,45.7
2017-10-08T00:33:12.308Z,45.8
2017-10-08T00:34:15.492Z,45.9
2017-10-08T00:35:18.777Z,45.9
2017-10-08T00:36:20.619Z,45.9
2017-10-08T00:37:24.540Z,45.7
2017-10-08T00:38:27.809Z,46.0
2017-10-08T00:39:31.141Z,45.9
2017-10-08T00:40:35.604Z,45.7
2017-10-08T00:41:38.889Z,45.4
2017-10-08T00:42:41.813Z,45.3
2017-10-08T00:43:46.432Z,45.3
2017-10-08T00:44:52.165Z,45.2
2017-10-08T00:45:55.522Z,44.8
2017-10-08T00:46:59.013Z,45.1
2017-10-08T00:48:03.405Z,45.1
2017-10-08T00:49:06.603Z,45.1
2017-10-08T00:50:09.397Z,45.4
2017-10-08T00:51:10.970Z,44.4
2017-10-08T00:52:12.576Z,44.5
2017-10-08T00:53:15.829Z,44.3
2017-10-08T00:54:19.292Z,44.4
2017-10-08T00:55:22.480Z,44.3
2017-10-08T00:56:26.142Z,44.5
2017-10-08T00:57:28.299Z,44.1
2017-10-08T00:58:29.873Z,44.1
2017-10-08T00:59:33.022Z,44.0
2017-10-08T01:00:36.161Z,44.3
2017-10-08T01:01:38.122Z,43.8
2017-10-08T01:02:39.739Z,43.9
2017-10-08T01:03:41.980Z,43.8
2017-10-08T01:04:44.553Z,44.0
2017-10-08T01:05:46.157Z,43.9
2017-10-08T01:06:50.769Z,43.5
2017-10-08T01:07:52.380Z,43.3
2017-10-08T01:08:56.101Z,42.9
2017-10-08T01:09:58.681Z,42.9
2017-10-08T01:11:00.260Z,43.3
2017-10-08T01:12:01.874Z,43.3
2017-10-08T01:13:03.472Z,43.0
2017-10-08T01:14:05.083Z,42.9
2017-10-08T01:15:06.685Z,42.9
2017-10-08T01:16:08.294Z,43.0
2017-10-08T01:17:09.895Z,43.0
2017-10-08T01:18:11.509Z,43.1
2017-10-08T01:19:13.116Z,43.2
2017-10-08T01:20:14.724Z,43.0
2017-10-08T01:21:16.327Z,42.3
2017-10-08T01:22:17.937Z,42.4
2017-10-08T01:23:19.540Z,41.9
2017-10-08T01:24:21.154Z,42.2
2017-10-08T01:25:22.758Z,42.3
2017-10-08T01:26:24.371Z,41.8
2017-10-08T01:27:25.981Z,41.4
2017-10-08T01:28:27.583Z,41.2
2017-10-08T01:29:29.192Z,41.1
2017-10-08T01:30:30.794Z,40.8
2017-10-08T01:31:32.405Z,40.5
2017-10-08T01:32:34.010Z,40.6
2017-10-08T01:33:35.620Z,40.9
2017-10-08T01:34:37.222Z,40.7
2017-10-08T01:35:38.832Z,40.6
2017-10-08T01:36:40.433Z,40.2
2017-10-08T01:37:42.045Z,40.2
2017-10-08T01:38:43.650Z,40.1
2017-10-08T01:39:45.263Z,40.3
2017-10-08T01:40:46.870Z,40.2
2017-10-08T01:41:48.480Z,40.1
2017-10-08T01:42:50.085Z,40.2
2017-10-08T01:43:51.690Z,40.4
2017-10-08T01:44:53.304Z,40.6
2017-10-08T01:45:54.913Z,40.3
2017-10-08T01:46:56.516Z,40.1
2017-10-08T01:47:58.125Z,40.1
2017-10-08T01:48:59.734Z,40.1
2017-10-08T01:50:01.338Z,40.3
2017-10-08T01:51:02.944Z,39.8
2017-10-08T01:52:04.548Z,40.1
2017-10-08T01:53:06.159Z,39.9
2017-10-08T01:54:07.768Z,39.9
2017-10-08T01:55:09.374Z,39.3
2017-10-08T01:56:10.981Z,39.6
2017-10-08T01:57:12.589Z,39.3
2017-10-08T01:58:14.202Z,39.0
2017-10-08T01:59:15.805Z,38.6
2017-10-08T02:00:17.527Z,38.4
2017-10-08T02:01:19.139Z,38.7
2017-10-08T02:02:20.750Z,38.8
2017-10-08T02:03:22.353Z,38.0
2017-10-08T02:04:23.958Z,38.5
2017-10-08T02:05:25.569Z,38.1
2017-10-08T02:06:27.183Z,38.3
2017-10-08T02:07:28.782Z,38.4
2017-10-08T02:08:30.390Z,37.9
2017-10-08T02:09:32.002Z,37.8
2017-10-08T02:10:33.606Z,37.6
2017-10-08T02:11:35.214Z,37.6
2017-10-08T02:12:36.816Z,37.1
2017-10-08T02:13:38.428Z,37.3
2017-10-08T02:14:40.032Z,37.4
2017-10-08T02:15:41.642Z,37.2
2017-10-08T02:16:43.247Z,36.9
2017-10-08T02:17:44.859Z,36.4
2017-10-08T02:18:46.459Z,36.4
2017-10-08T02:19:48.069Z,36.1
2017-10-08T02:20:49.675Z,36.6
2017-10-08T02:21:51.285Z,36.5
2017-10-08T02:22:52.890Z,36.1
2017-10-08T02:23:54.503Z,36.2
2017-10-08T02:24:56.109Z,35.9
2017-10-08T02:25:57.711Z,36.0
2017-10-08T02:26:59.322Z,36.0
2017-10-08T02:28:00.925Z,35.9
2017-10-08T02:29:02.535Z,36.2
2017-10-08T02:30:04.140Z,35.9
2017-10-08T02:31:05.752Z,35.8
2017-10-08T02:32:07.357Z,35.4
2017-10-08T02:33:08.965Z,35.8
2017-10-08T02:34:10.569Z,35.4
2017-10-08T02:35:12.183Z,35.1
2017-10-08T02:36:13.785Z,34.9
2017-10-08T02:37:15.400Z,35.1
2017-10-08T02:38:17.005Z,35.1
2017-10-08T02:39:18.614Z,35.0
2017-10-08T02:40:20.217Z,35.1
2017-10-08T02:41:21.821Z,35.3
2017-10-08T02:42:23.430Z,34.8
2017-10-08T02:43:25.042Z,34.5
2017-10-08T02:44:26.645Z,34.7
2017-10-08T02:45:28.250Z,34.5
2017-10-08T02:46:29.861Z,34.4
2017-10-08T02:47:31.467Z,34.5
2017-10-08T02:48:33.071Z,34.5
2017-10-08T02:49:34.678Z,34.5
2017-10-08T02:50:36.292Z,34.4
2017-10-08T02:51:37.900Z,34.1
2017-10-08T02:52:39.507Z,34.1
2017-10-08T02:53:41.112Z,34.2
2017-10-08T02:54:42.720Z,34.2
2017-10-08T02:55:44.328Z,34.1
2017-10-08T02:56:45.929Z,33.9
2017-10-08T02:57:47.542Z,33.9
2017-10-08T02:58:49.148Z,33.8
2017-10-08T02:59:50.756Z,33.7
2017-10-08T03:00:52.364Z,33.4
2017-10-08T03:01:53.972Z,33.2
2017-10-08T03:02:55.574Z,33.6
2017-10-08T03:03:57.180Z,33.4
2017-10-08T03:04:58.792Z,33.3
2017-10-08T03:06:00.401Z,33.2
2017-10-08T03:07:02.018Z,33.3
2017-10-08T03:08:03.628Z,33.2
2017-10-08T03:09:05.234Z,33.1
2017-10-08T03:10:06.844Z,32.6
2017-10-08T03:11:08.453Z,32.8
2017-10-08T03:12:10.064Z,32.7
2017-10-08T03:13:11.667Z,32.6
2017-10-08T03:14:13.276Z,32.2
2017-10-08T03:15:14.885Z,32.3
2017-10-08T03:16:16.494Z,32.2
2017-10-08T03:17:18.121Z,31.7
2017-10-08T03:18:19.703Z,31.7
2017-10-08T03:19:21.316Z,31.7
2017-10-08T03:20:22.924Z,31.6
2017-10-08T03:21:24.525Z,31.5
2017-10-08T03:22:26.133Z,31.2
2017-10-08T03:23:27.737Z,31.2
2017-10-08T03:24:29.341Z,31.1
2017-10-08T03:25:30.948Z,31.5
2017-10-08T03:26:32.561Z,30.9
2017-10-08T03:27:34.167Z,31.0
2017-10-08T03:28:35.772Z,30.9
2017-10-08T03:29:37.382Z,31.0
2017-10-08T03:30:38.989Z,31.0
2017-10-08T03:31:40.590Z,30.7
2017-10-08T03:32:42.198Z,30.5
2017-10-08T03:33:43.810Z,30.8
2017-10-08T03:34:45.417Z,30.3
2017-10-08T03:35:47.021Z,30.3
2017-10-08T03:36:48.627Z,30.1
2017-10-08T03:37:50.238Z,29.7
2017-10-08T03:38:51.844Z,29.8
2017-10-08T03:39:53.454Z,30.0
2017-10-08T03:40:55.056Z,29.7
2017-10-08T03:41:56.663Z,30.1
2017-10-08T03:42:58.267Z,29.6
2017-10-08T03:43:59.879Z,29.9
2017-10-08T03:45:01.481Z,29.7
2017-10-08T03:46:03.094Z,29.7
2017-10-08T03:47:04.701Z,29.3
2017-10-08T03:48:06.309Z,29.1
2017-10-08T03:49:07.921Z,29.1
2017-10-08T03:50:09.529Z,28.9
2017-10-08T03:51:11.136Z,28.9
2017-10-08T03:52:12.739Z,28.8
2017-10-08T03:53:14.351Z,28.6
2017-10-08T03:54:15.951Z,28.7
2017-10-08T03:55:17.558Z,28.4
2017-10-08T03:56:19.169Z,28.3
2017-10-08T03:57:20.773Z,28.4
2017-10-08T03:58:22.377Z,28.2
2017-10-08T03:59:23.984Z,28.1
2017-10-08T04:00:25.587Z,28.1
2017-10-08T04:01:27.194Z,27.9
2017-10-08T04:02:28.806Z,28.1
2017-10-08T04:03:30.409Z,27.9
2017-10-08T04:04:32.020Z,27.7
2017-10-08T04:05:33.624Z,27.5
2017-10-08T04:06:35.234Z,27.5
2017-10-08T04:07:36.835Z,27.7
2017-10-08T04:08:38.447Z,27.5
2017-10-08T04:09:40.054Z,27.2
2017-10-08T04:10:41.661Z,27.2
2017-10-08T04:11:43.273Z,26.8
2017-10-08T04:12:44.874Z,26.9
2017-10-08T04:13:46.483Z,26.9
2017-10-08T04:14:48.093Z,26.9
2017-10-08T04:15:49.704Z,26.7
2017-10-08T04:16:51.311Z,26.5
2017-10-08T04:17:52.920Z,26.7
2017-10-08T04:18:54.526Z,26.5
2017-10-08T04:19:56.129Z,26.2
2017-10-08T04:20:57.738Z,25.8
2017-10-08T04:21:59.341Z,26.0
2017-10-08T04:23:00.954Z,26.0
2017-10-08T04:24:02.559Z,26.0
2017-10-08T04:25:04.171Z,25.8
2017-10-08T04:26:05.777Z,25.7
2017-10-08T04:27:07.387Z,25.9
2017-10-08T04:28:08.993Z,25.8
2017-10-08T04:29:10.596Z,25.7
2017-10-08T04:30:12.210Z,25.6
2017-10-08T04:31:13.813Z,25.2
2017-10-08T04:32:15.424Z,25.2
2017-10-08T04:33:17.033Z,25.3
2017-10-08T04:34:18.633Z,25.1
2017-10-08T04:35:20.245Z,25.6
2017-10-08T04:36:21.846Z,24.8
2017-10-08T04:37:23.458Z,24.9
2017-10-08T04:38:25.068Z,24.8
2017-10-08T04:39:26.675Z,25.4
2017-10-08T04:40:28.281Z,25.3
2017-10-08T04:41:29.893Z,24.6
2017-10-08T04:42:31.500Z,24.7
2017-10-08T04:43:33.106Z,24.8
2017-10-08T04:44:34.718Z,24.8
2017-10-08T04:45:36.328Z,24.8
2017-10-08T04:46:37.936Z,24.9
2017-10-08T04:47:39.542Z,24.5
2017-10-08T04:48:41.146Z,24.4
2017-10-08T04:49:42.755Z,24.6
2017-10-08T04:50:44.357Z,24.3
2017-10-08T04:51:45.962Z,23.9
2017-10-08T04:52:47.570Z,23.9
2017-10-08T04:53:49.182Z,23.9
2017-10-08T04:54:50.794Z,23.9
2017-10-08T04:55:52.395Z,24.0
2017-10-08T04:56:54.001Z,23.9
2017-10-08T04:57:55.614Z,23.8
2017-10-08T04:58:57.222Z,23.5
2017-10-08T04:59:58.824Z,23.4
2017-10-08T05:01:00.429Z,23.3
2017-10-08T05:02:02.036Z,23.6
2017-10-08T05:03:03.644Z,22.8
2017-10-08T05:04:05.252Z,22.8
2017-10-08T05:05:06.861Z,23.1
2017-10-08T05:06:08.464Z,22.9
2017-10-08T05:07:10.070Z,23.0
2017-10-08T05:08:11.677Z,23.2
2017-10-08T05:09:13.294Z,22.8
2017-10-08T05:10:14.894Z,22.5
2017-10-08T05:11:16.501Z,22.2
2017-10-08T05:12:18.104Z,22.0
2017-10-08T05:13:19.715Z,21.9
2017-10-08T05:14:21.333Z,22.1
2017-10-08T05:15:22.946Z,22.0
2017-10-08T05:16:24.552Z,22.1
2017-10-08T05:17:26.160Z,21.9
2017-10-08T05:18:27.759Z,21.8
2017-10-08T05:19:29.370Z,21.9
2017-10-08T05:20:30.973Z,21.9
2017-10-08T05:21:32.584Z,21.8
2017-10-08T05:22:34.189Z,22.1
2017-10-08T05:23:35.804Z,22.0
2017-10-08T05:24:37.408Z,21.8
2017-10-08T05:25:39.014Z,21.8
2017-10-08T05:26:40.623Z,21.8
2017-10-08T05:27:42.232Z,21.6
2017-10-08T05:28:43.837Z,21.6
2017-10-08T05:29:45.443Z,21.6
2017-10-08T05:30:47.055Z,21.7
2017-10-08T05:31:48.664Z,21.6
2017-10-08T05:32:50.266Z,21.6
2017-10-08T05:33:51.872Z,21.4
2017-10-08T05:34:53.485Z,21.4
2017-10-08T05:35:55.096Z,21.3
2017-10-08T05:36:56.702Z,21.2
2017-10-08T05:37:58.308Z,21.2
2017-10-08T05:38:59.922Z,21.0
2017-10-08T05:40:01.526Z,21.0
2017-10-08T05:41:03.133Z,21.3
2017-10-08T05:42:04.744Z,21.0
2017-10-08T05:43:06.350Z,21.1
2017-10-08T05:44:07.957Z,20.9
2017-10-08T05:45:09.571Z,21.0
2017-10-08T05:46:11.179Z,21.0
2017-10-08T05:47:12.782Z,20.9
2017-10-08T05:48:14.389Z,20.9
2017-10-08T05:49:16.000Z,20.9
2017-10-08T05:50:17.608Z,20.9
2017-10-08T05:51:19.222Z,20.7
2017-10-08T05:52:20.833Z,20.2
2017-10-08T05:53:22.438Z,20.5
2017-10-08T05:54:24.044Z,20.4
2017-10-08T05:55:25.659Z,20.1
2017-10-08T05:56:27.270Z,20.2
2017-10-08T05:57:28.878Z,20.2
2017-10-08T05:58:30.483Z,20.1
2017-10-08T05:59:32.101Z,20.1
2017-10-08T06:00:33.706Z,19.7
2017-10-08T06:01:35.318Z,19.3
2017-10-08T06:02:36.924Z,19.7
2017-10-08T06:03:38.539Z,19.6
2017-10-08T06:04:40.145Z,19.7
2017-10-08T06:05:41.763Z,19.7
2017-10-08T06:06:43.368Z,19.2
2017-10-08T06:07:44.982Z,18.9
2017-10-08T06:08:46.586Z,18.9
2017-10-08T06:09:48.203Z,18.9
2017-10-08T06:10:49.804Z,18.3
2017-10-08T06:11:51.423Z,18.3
2017-10-08T06:12:53.028Z,18.0
2017-10-08T06:13:54.648Z,18.0
2017-10-08T06:14:56.261Z,17.7
2017-10-08T06:15:57.866Z,17.4
2017-10-08T06:16:59.479Z,17.2
2017-10-08T06:18:01.091Z,16.8
2017-10-08T06:19:02.702Z,16.7
2017-10-08T06:20:04.310Z,16.7
2017-10-08T06:21:05.925Z,16.7
2017-10-08T06:22:07.529Z,16.5
2017-10-08T06:23:09.142Z,16.3
2017-10-08T06:24:10.747Z,16.2
2017-10-08T06:25:12.362Z,16.0
2017-10-08T06:26:13.966Z,15.7
2017-10-08T06:27:15.580Z,15.5
2017-10-08T06:28:17.189Z,15.7
2017-10-08T06:29:18.804Z,15.6
2017-10-08T06:30:20.410Z,15.0
2017-10-08T06:31:22.023Z,15.0
2017-10-08T06:32:23.638Z,15.0
2017-10-08T06:33:25.251Z,15.1
2017-10-08T06:34:27.448Z,15.1
2017-10-08T06:35:29.009Z,14.5
2017-10-08T06:36:30.618Z,14.5
2017-10-08T06:37:32.232Z,14.8
2017-10-08T06:38:33.836Z,14.7
2017-10-08T06:39:35.446Z,14.8
2017-10-08T06:40:37.062Z,14.8
2017-10-08T06:41:38.674Z,14.4
2017-10-08T06:42:40.287Z,14.4
2017-10-08T06:43:41.891Z,14.7
2017-10-08T06:44:43.505Z,14.6
2017-10-08T06:45:45.131Z,14.8
2017-10-08T06:46:46.737Z,14.1
2017-10-08T06:47:48.349Z,13.9
2017-10-08T06:48:49.965Z,13.6
2017-10-08T06:49:51.576Z,12.8
2017-10-08T06:50:53.183Z,12.9
2017-10-08T06:51:54.789Z,12.9
2017-10-08T06:52:56.402Z,13.1
2017-10-08T06:53:58.016Z,13.1
2017-10-08T06:54:59.625Z,13.0
2017-10-08T06:56:01.235Z,12.8
2017-10-08T06:57:02.857Z,12.9
2017-10-08T06:58:04.467Z,12.3
2017-10-08T06:59:06.073Z,12.3
2017-10-08T07:00:07.684Z,12.3
2017-10-08T07:01:09.300Z,12.1
2017-10-08T07:02:10.914Z,12.4
2017-10-08T07:03:12.529Z,11.5
2017-10-08T07:04:14.142Z,11.6
2017-10-08T07:05:15.763Z,11.5
2017-10-08T07:06:17.370Z,11.6
2017-10-08T07:07:18.977Z,11.6
2017-10-08T07:08:20.589Z,11.5
2017-10-08T07:09:22.206Z,11.5
2017-10-08T07:10:23.820Z,11.3
2017-10-08T07:11:25.434Z,10.8
2017-10-08T07:12:27.044Z,10.7
2017-10-08T07:13:28.657Z,10.5
2017-10-08T07:14:30.269Z,10.4
2017-10-08T07:15:31.885Z,10.4
2017-10-08T07:16:33.501Z,10.2
2017-10-08T07:17:35.113Z,10.2
2017-10-08T07:18:36.720Z,10.2
2017-10-08T07:19:38.336Z,9.8
2017-10-08T07:20:39.940Z,9.7
2017-10-08T07:21:41.565Z,10.1
2017-10-08T07:22:43.172Z,10.9
2017-10-08T07:23:44.791Z,10.6
2017-10-08T07:24:46.400Z,10.0
2017-10-08T07:25:48.020Z,10.4
2017-10-08T07:26:49.628Z,10.1
2017-10-08T07:27:51.241Z,10.1
2017-10-08T07:28:52.852Z,10.5
2017-10-08T07:29:54.467Z,10.3
2017-10-08T07:30:56.081Z,10.3
2017-10-08T07:31:57.694Z,10.3
2017-10-08T07:32:59.308Z,10.5
2017-10-08T07:34:00.929Z,11.5
2017-10-08T07:35:02.539Z,10.0
2017-10-08T07:36:04.149Z,10.2
2017-10-08T07:37:05.765Z,10.0
2017-10-08T07:38:07.380Z,11.4
2017-10-08T07:39:08.998Z,11.9
2017-10-08T07:40:10.609Z,12.8
2017-10-08T07:41:12.217Z,11.4
2017-10-08T07:42:13.833Z,11.8
2017-10-08T07:43:15.443Z,11.7
2017-10-08T07:44:17.056Z,11.4
2017-10-08T07:45:18.674Z,11.6
2017-10-08T07:46:20.283Z,12.8
2017-10-08T07:47:21.900Z,12.7
2017-10-08T07:48:23.511Z,12.5
2017-10-08T07:49:25.130Z,11.3
2017-10-08T07:50:26.736Z,10.2
2017-10-08T07:51:28.352Z,10.4
2017-10-08T07:52:29.963Z,11.0
2017-10-08T07:53:31.575Z,11.2
2017-10-08T07:54:33.192Z,12.1
2017-10-08T07:55:34.809Z,14.2
2017-10-08T07:56:36.418Z,13.4
2017-10-08T07:57:38.026Z,12.4
2017-10-08T07:58:39.639Z,14.0
2017-10-08T07:59:41.252Z,13.9
2017-10-08T08:00:42.863Z,13.8
2017-10-08T08:01:44.476Z,14.2
2017-10-08T08:02:46.092Z,15.1
2017-10-08T08:03:47.701Z,13.8
2017-10-08T08:04:49.318Z,12.9
2017-10-08T08:05:50.929Z,12.9
2017-10-08T08:06:52.600Z,15.2
2017-10-08T08:07:54.209Z,17.2
2017-10-08T08:08:55.829Z,16.0
2017-10-08T08:09:57.445Z,15.3
2017-10-08T08:10:59.057Z,15.4
2017-10-08T08:12:00.669Z,15.0
2017-10-08T08:13:02.285Z,14.4
2017-10-08T08:14:03.896Z,15.6
2017-10-08T08:15:05.514Z,15.0
2017-10-08T08:16:07.131Z,13.5
2017-10-08T08:17:08.747Z,15.5
2017-10-08T08:18:10.354Z,15.5
2017-10-08T08:19:11.973Z,13.7
2017-10-08T08:20:13.591Z,12.5
2017-10-08T08:21:15.201Z,14.3
2017-10-08T08:22:16.816Z,12.5
2017-10-08T08:23:18.441Z,13.0
2017-10-08T08:24:20.048Z,13.3
2017-10-08T08:25:21.657Z,11.8
2017-10-08T08:26:23.276Z,12.4
2017-10-08T08:27:24.891Z,12.8
2017-10-08T08:28:26.509Z,12.5
2017-10-08T08:29:28.117Z,12.2
2017-10-08T08:30:29.733Z,13.0
2017-10-08T08:31:31.350Z,11.9
2017-10-08T08:32:32.958Z,11.8
2017-10-08T08:33:34.566Z,11.3
2017-10-08T08:34:36.183Z,11.5
2017-10-08T08:35:37.793Z,11.0
2017-10-08T08:36:39.412Z,10.9
2017-10-08T08:37:41.020Z,10.9
2017-10-08T08:38:42.634Z,10.7
2017-10-08T08:39:44.241Z,9.5
2017-10-08T08:40:45.856Z,9.5
2017-10-08T08:41:47.465Z,9.5
2017-10-08T08:42:49.080Z,9.4
2017-10-08T08:43:50.689Z,8.7
2017-10-08T08:44:52.306Z,8.2
2017-10-08T08:45:53.913Z,7.8
2017-10-08T08:46:55.527Z,7.9
2017-10-08T08:47:57.149Z,10.4
2017-10-08T08:48:58.752Z,8.8
2017-10-08T08:50:00.364Z,8.6
2017-10-08T08:51:01.979Z,8.8
2017-10-08T08:52:03.595Z,10.7
2017-10-08T08:53:05.200Z,9.8
2017-10-08T08:54:06.818Z,10.3
2017-10-08T08:55:08.435Z,12.6
2017-10-08T08:56:10.046Z,10.9
2017-10-08T08:57:11.670Z,10.8
2017-10-08T08:58:13.288Z,11.1
2017-10-08T08:59:14.901Z,11.2
2017-10-08T09:00:16.517Z,10.8
2017-10-08T09:01:18.135Z,10.6
2017-10-08T09:02:19.743Z,11.9
2017-10-08T09:03:21.355Z,11.3
2017-10-08T09:04:22.969Z,10.9
2017-10-08T09:05:24.620Z,16.5
2017-10-08T09:06:26.266Z,17.1
2017-10-08T09:07:27.952Z,18.6
2017-10-08T09:08:29.568Z,24.5
2017-10-08T09:09:31.251Z,24.3
2017-10-08T09:10:32.920Z,23.5
2017-10-08T09:11:34.751Z,31.5
2017-10-08T09:12:36.594Z,24.9
2017-10-08T09:13:38.540Z,28.5
2017-10-08T09:14:40.350Z,27.1
2017-10-08T09:15:42.217Z,27.1
2017-10-08T09:16:44.068Z,35.3
2017-10-08T09:17:45.937Z,32.3
2017-10-08T09:18:47.753Z,31.6
2017-10-08T09:19:49.610Z,28.8
2017-10-08T09:20:51.531Z,34.2
2017-10-08T09:21:53.242Z,28.8
2017-10-08T09:22:54.959Z,26.7
2017-10-08T09:23:56.578Z,33.1
2017-10-08T09:24:58.192Z,40.5
2017-10-08T09:25:59.807Z,38.3
2017-10-08T09:27:01.485Z,42.3
2017-10-08T09:28:03.160Z,40.6
2017-10-08T09:29:04.798Z,55.5
2017-10-08T09:30:06.452Z,49.7
2017-10-08T09:31:08.326Z,41.8
2017-10-08T09:32:10.234Z,52.7
2017-10-08T09:33:12.151Z,63.6
2017-10-08T09:34:13.993Z,51.1
2017-10-08T09:35:15.875Z,51.1
2017-10-08T09:36:17.709Z,50.0
2017-10-08T09:37:19.628Z,45.9
2017-10-08T09:38:21.416Z,43.5
2017-10-08T09:39:23.248Z,42.4
2017-10-08T09:40:25.093Z,44.0
2017-10-08T09:41:26.975Z,46.6
2017-10-08T09:42:28.823Z,36.2
2017-10-08T09:43:30.709Z,34.9
2017-10-08T09:44:32.556Z,34.7
2017-10-08T09:45:34.368Z,36.8
2017-10-08T09:46:36.208Z,37.8
2017-10-08T09:47:38.064Z,41.2
2017-10-08T09:48:39.916Z,37.8
2017-10-08T09:49:41.835Z,42.4
2017-10-08T09:50:43.771Z,41.8
2017-10-08T09:51:45.597Z,41.7
2017-10-08T09:52:47.456Z,38.7
2017-10-08T09:53:49.327Z,48.1
2017-10-08T09:54:51.168Z,44.5
2017-10-08T09:55:53.060Z,47.1
2017-10-08T09:56:54.717Z,53.5
2017-10-08T09:57:57.179Z,51.7
2017-10-08T09:59:04.700Z,52.3
2017-10-08T10:00:17.951Z,67.0
2017-10-08T10:01:31.034Z,78.0
2017-10-08T10:02:43.982Z,64.4
2017-10-08T10:03:56.893Z,75.9
2017-10-08T10:04:58.733Z,67.6
2017-10-08T10:06:00.354Z,59.3
2017-10-08T10:07:02.024Z,80.2
2017-10-08T10:08:03.698Z,86.5
2017-10-08T10:09:05.299Z,87.9
2017-10-08T10:10:06.942Z,85.7
2017-10-08T10:11:08.933Z,88.9
2017-10-08T10:12:10.895Z,96.2
2017-10-08T10:13:12.854Z,91.9
2017-10-08T10:14:14.709Z,85.6
2017-10-08T10:15:16.578Z,100.0
2017-10-08T10:16:18.431Z,100.0
2017-10-08T10:17:20.410Z,98.4
2017-10-08T10:18:22.285Z,95.9
2017-10-08T10:19:24.160Z,96.1
2017-10-08T10:20:26.087Z,100.0
2017-10-08T10:21:27.913Z,90.6
2017-10-08T10:22:29.770Z,97.6
2017-10-08T10:23:31.621Z,97.6
2017-10-08T10:24:33.447Z,91.2
2017-10-08T10:25:35.333Z,88.7
2017-10-08T10:26:37.218Z,90.1
2017-10-08T10:27:39.093Z,91.2
2017-10-08T10:28:40.988Z,95.9
2017-10-08T10:29:43.145Z,94.9
2017-10-08T10:30:44.973Z,87.3
2017-10-08T10:31:46.916Z,87.1
2017-10-08T10:32:48.786Z,93.4
2017-10-08T10:33:50.673Z,89.9
2017-10-08T10:34:52.574Z,93.0
2017-10-08T10:35:54.491Z,90.7
2017-10-08T10:36:56.380Z,87.8
2017-10-08T10:37:58.222Z,94.6
2017-10-08T10:39:00.079Z,85.0
2017-10-08T10:40:01.981Z,81.4
2017-10-08T10:41:03.857Z,88.8
2017-10-08T10:42:05.681Z,81.3
2017-10-08T10:43:07.528Z,77.7
2017-10-08T10:44:10.294Z,83.6
2017-10-08T10:45:12.129Z,85.0
2017-10-08T10:46:14.832Z,88.7
2017-10-08T10:47:16.614Z,96.5
2017-10-08T10:48:18.884Z,95.9
2017-10-08T10:49:20.702Z,93.3
2017-10-08T10:50:22.641Z,96.1
2017-10-08T10:51:24.525Z,97.2
2017-10-08T10:52:26.402Z,95.4
2017-10-08T10:53:28.303Z,90.5
2017-10-08T10:54:30.183Z,95.6
2017-10-08T10:55:31.990Z,91.9
2017-10-08T10:56:33.946Z,99.6
2017-10-08T10:57:35.805Z,92.4
2017-10-08T10:58:37.667Z,91.2
2017-10-08T10:59:39.511Z,96.0
2017-10-08T11:00:41.326Z,89.6
2017-10-08T11:01:43.174Z,94.1
2017-10-08T11:02:45.020Z,92.2
2017-10-08T11:03:46.903Z,93.6
2017-10-08T11:04:48.744Z,94.7
2017-10-08T11:05:50.634Z,90.7
2017-10-08T11:06:52.518Z,88.3
2017-10-08T11:07:54.382Z,90.7
2017-10-08T11:08:56.217Z,91.3
2017-10-08T11:09:58.089Z,82.3
2017-10-08T11:10:59.942Z,85.6
2017-10-08T11:12:01.808Z,77.8
2017-10-08T11:13:03.719Z,77.6
2017-10-08T11:14:05.541Z,71.4
2017-10-08T11:15:07.327Z,73.0
2017-10-08T11:16:08.946Z,66.5
2017-10-08T11:17:10.567Z,62.3
2017-10-08T11:18:12.178Z,56.1
2017-10-08T11:19:13.796Z,56.0
2017-10-08T11:20:15.407Z,53.4
2017-10-08T11:21:17.027Z,49.9
2017-10-08T11:22:18.646Z,48.4
2017-10-08T11:23:20.257Z,45.3
2017-10-08T11:24:21.873Z,50.1
2017-10-08T11:25:23.488Z,44.6
2017-10-08T11:26:25.104Z,42.9
2017-10-08T11:27:26.715Z,43.5
2017-10-08T11:28:28.334Z,41.5
2017-10-08T11:29:29.947Z,38.2
2017-10-08T11:30:31.565Z,36.6
2017-10-08T11:31:33.182Z,37.9
2017-10-08T11:32:34.799Z,36.9
2017-10-08T11:33:36.408Z,37.2
2017-10-08T11:34:38.029Z,34.0
2017-10-08T11:35:39.643Z,36.6
2017-10-08T11:36:41.258Z,34.1
2017-10-08T11:37:42.868Z,33.6
2017-10-08T11:38:44.494Z,40.6
2017-10-08T11:39:46.104Z,49.5
2017-10-08T11:40:47.720Z,41.9
2017-10-08T11:41:49.334Z,38.9
2017-10-08T11:42:50.949Z,37.8
2017-10-08T11:43:52.569Z,38.7
2017-10-08T11:44:54.182Z,39.9
2017-10-08T11:45:55.806Z,36.7
2017-10-08T11:46:57.424Z,45.2
2017-10-08T11:47:59.037Z,46.2
2017-10-08T11:49:00.649Z,43.7
2017-10-08T11:50:02.269Z,50.7
2017-10-08T11:51:03.889Z,48.1
2017-10-08T11:52:05.502Z,59.6
2017-10-08T11:53:07.119Z,53.3
2017-10-08T11:54:08.741Z,51.8
2017-10-08T11:55:10.357Z,55.9
2017-10-08T11:56:11.973Z,63.9
2017-10-08T11:57:13.589Z,66.6
2017-10-08T11:58:15.207Z,60.3
2017-10-08T11:59:16.829Z,61.5
2017-10-08T12:00:18.441Z,66.5
2017-10-08T12:01:20.062Z,66.6
2017-10-08T12:02:21.676Z,73.4
2017-10-08T12:03:23.289Z,66.3
2017-10-08T12:04:24.910Z,68.6
2017-10-08T12:05:26.528Z,65.2
2017-10-08T12:06:28.145Z,71.3
2017-10-08T12:07:29.768Z,72.0
2017-10-08T12:08:31.383Z,68.6
2017-10-08T12:09:32.998Z,75.3
2017-10-08T12:10:34.614Z,66.4
2017-10-08T12:11:36.225Z,67.3
2017-10-08T12:12:37.845Z,70.8
2017-10-08T12:13:39.464Z,73.0
2017-10-08T12:14:41.076Z,69.5
2017-10-08T12:15:42.686Z,75.4
2017-10-08T12:16:44.305Z,75.4
2017-10-08T12:17:45.923Z,82.1
2017-10-08T12:18:47.531Z,79.0
2017-10-08T12:19:49.147Z,76.3
2017-10-08T12:20:50.764Z,72.9
2017-10-08T12:21:52.383Z,70.1
2017-10-08T12:22:53.997Z,76.4
2017-10-08T12:23:55.607Z,69.8
2017-10-08T12:24:57.228Z,75.9
2017-10-08T12:25:58.845Z,74.5
2017-10-08T12:27:00.457Z,67.8
2017-10-08T12:28:02.076Z,61.6
2017-10-08T12:29:03.689Z,73.9
2017-10-08T12:30:05.310Z,70.8
2017-10-08T12:31:06.922Z,63.4
2017-10-08T12:32:08.538Z,63.5
2017-10-08T12:33:10.150Z,64.2
2017-10-08T12:34:11.768Z,62.8
2017-10-08T12:35:13.387Z,67.1
2017-10-08T12:36:15.005Z,66.4
2017-10-08T12:37:16.617Z,75.2
2017-10-08T12:38:18.226Z,66.3
2017-10-08T12:39:19.845Z,67.1
2017-10-08T12:40:21.457Z,78.2
2017-10-08T12:41:23.073Z,66.1
2017-10-08T12:42:24.686Z,73.1
2017-10-08T12:43:26.306Z,76.1
2017-10-08T12:44:27.919Z,70.0
2017-10-08T12:45:29.534Z,68.3
2017-10-08T12:46:31.150Z,67.4
2017-10-08T12:47:32.762Z,69.4
2017-10-08T12:48:34.376Z,70.0
2017-10-08T12:49:35.997Z,72.5
2017-10-08T12:50:37.608Z,74.1
2017-10-08T12:51:39.222Z,75.5
2017-10-08T12:52:40.840Z,79.2
2017-10-08T12:53:42.453Z,73.3
2017-10-08T12:54:44.072Z,77.3
2017-10-08T12:55:45.688Z,77.2
2017-10-08T12:56:47.301Z,77.4
2017-10-08T12:57:48.918Z,75.8
2017-10-08T12:58:50.557Z,71.4
2017-10-08T12:59:52.173Z,70.0
2017-10-08T13:00:53.788Z,70.9
2017-10-08T13:01:55.408Z,75.5
2017-10-08T13:02:57.023Z,70.9
2017-10-08T13:03:58.645Z,78.3
2017-10-08T13:05:00.258Z,83.8
2017-10-08T13:06:01.878Z,83.4
2017-10-08T13:07:03.493Z,81.8
2017-10-08T13:08:05.110Z,82.0
2017-10-08T13:09:06.722Z,73.7
2017-10-08T13:10:08.341Z,84.5
2017-10-08T13:11:09.956Z,84.2
2017-10-08T13:12:11.575Z,81.2
2017-10-08T13:13:13.191Z,83.8
2017-10-08T13:14:14.822Z,82.1
2017-10-08T13:15:16.434Z,80.2
2017-10-08T13:16:18.059Z,78.0
2017-10-08T13:17:19.691Z,79.5
2017-10-08T13:18:21.309Z,81.1
2017-10-08T13:19:22.918Z,79.4
2017-10-08T13:20:24.538Z,81.6
2017-10-08T13:21:26.153Z,78.7
2017-10-08T13:22:27.764Z,78.2
2017-10-08T13:23:29.390Z,88.7
2017-10-08T13:24:31.000Z,82.9
2017-10-08T13:25:32.619Z,85.9
2017-10-08T13:26:34.235Z,81.2
2017-10-08T13:27:35.852Z,81.1
2017-10-08T13:28:37.470Z,86.6
2017-10-08T13:29:39.081Z,83.7
2017-10-08T13:30:40.699Z,84.1
2017-10-08T13:31:42.312Z,82.1
2017-10-08T13:32:43.932Z,78.2
2017-10-08T13:33:45.557Z,84.5
2017-10-08T13:34:47.166Z,84.9
2017-10-08T13:35:48.779Z,85.2
2017-10-08T13:36:50.463Z,84.2
2017-10-08T13:37:52.083Z,88.3
2017-10-08T13:38:53.700Z,85.3
2017-10-08T13:39:55.319Z,83.1
2017-10-08T13:40:56.939Z,79.0
2017-10-08T13:41:58.554Z,85.7
2017-10-08T13:43:00.164Z,83.9